createdAt,value
2023-03-05T00:01:41.625Z,19.46
2023-03-05T00:04:14.426Z,19.49
2023-03-05T00:06:43.075Z,19.51
2023-03-05T00:09:12.107Z,19.53
2023-03-05T00:11:40.767Z,19.56
2023-03-05T00:14:09.140Z,19.59
2023-03-05T00:16:37.441Z,19.62
2023-03-05T00:19:06.431Z,19.65
2023-03-05T00:21:40.440Z,19.69
2023-03-05T00:24:12.693Z,19.71
2023-03-05T00:26:41.457Z,19.74
2023-03-05T00:29:10.604Z,19.80
2023-03-05T00:31:39.907Z,19.85
2023-03-05T00:34:11.206Z,19.88
2023-03-05T00:36:44.951Z,19.92
2023-03-05T00:39:13.941Z,19.96
2023-03-05T00:41:42.310Z,20.00
2023-03-05T00:44:11.101Z,20.06
2023-03-05T00:46:39.634Z,20.12
2023-03-05T00:49:08.370Z,20.16
2023-03-05T00:51:36.788Z,20.21
2023-03-05T00:54:05.827Z,20.26
2023-03-05T00:56:34.225Z,20.31
2023-03-05T00:59:02.639Z,20.36
2023-03-05T01:01:31.538Z,20.43
2023-03-05T01:04:02.025Z,20.49
2023-03-05T01:06:30.953Z,20.55
2023-03-05T01:09:00.457Z,20.61
2023-03-05T01:11:29.001Z,20.66
2023-03-05T01:13:57.410Z,20.73
2023-03-05T01:16:25.732Z,20.80
2023-03-05T01:18:54.224Z,20.85
2023-03-05T01:21:23.019Z,20.92
2023-03-05T01:23:51.428Z,20.98
2023-03-05T01:26:20.030Z,21.06
2023-03-05T01:28:48.563Z,21.12
2023-03-05T01:31:17.093Z,21.21
2023-03-05T01:33:46.022Z,21.29
2023-03-05T01:36:17.723Z,21.36
2023-03-05T01:38:47.927Z,21.43
2023-03-05T01:41:17.575Z,21.50
2023-03-05T01:43:48.085Z,21.57
2023-03-05T01:46:25.255Z,21.66
2023-03-05T01:49:14.122Z,21.73
2023-03-05T01:52:04.119Z,21.83
2023-03-05T01:54:46.217Z,21.91
2023-03-05T01:57:21.141Z,21.96
2023-03-05T01:59:54.769Z,22.04
2023-03-05T02:02:23.360Z,22.12
2023-03-05T02:05:04.697Z,22.18
2023-03-05T02:07:33.580Z,22.25
2023-03-05T02:10:01.897Z,22.31
2023-03-05T02:12:30.280Z,22.39
2023-03-05T02:15:00.341Z,22.47
2023-03-05T02:17:29.659Z,22.53
2023-03-05T02:20:06.709Z,22.60
2023-03-05T02:22:35.143Z,22.68
2023-03-05T02:25:03.493Z,22.75
2023-03-05T02:27:37.579Z,22.80
2023-03-05T02:30:06.388Z,22.88
2023-03-05T02:32:34.691Z,22.97
2023-03-05T02:35:03.196Z,23.08
2023-03-05T02:37:31.511Z,23.16
2023-03-05T02:39:59.816Z,23.24
2023-03-05T02:42:28.183Z,23.32
2023-03-05T02:44:56.570Z,23.40
2023-03-05T02:47:24.869Z,23.48
2023-03-05T02:49:53.214Z,23.54
2023-03-05T02:52:24.177Z,23.59
2023-03-05T02:54:53.400Z,23.65
2023-03-05T02:57:22.021Z,23.72
2023-03-05T02:59:50.357Z,23.79
2023-03-05T03:02:18.864Z,23.85
2023-03-05T03:04:47.473Z,23.90
2023-03-05T03:07:16.512Z,23.95
2023-03-05T03:09:45.019Z,24.00
2023-03-05T03:12:13.768Z,24.05
2023-03-05T03:14:44.235Z,24.11
2023-03-05T03:17:18.175Z,24.19
2023-03-05T03:19:47.248Z,24.27
2023-03-05T03:22:17.335Z,24.35
2023-03-05T03:24:46.117Z,24.42
2023-03-05T03:27:14.481Z,24.47
2023-03-05T03:29:42.807Z,24.54
2023-03-05T03:32:11.172Z,24.60
2023-03-05T03:34:39.584Z,24.68
2023-03-05T03:37:08.337Z,24.76
2023-03-05T03:39:36.622Z,24.81
2023-03-05T03:42:05.166Z,24.91
2023-03-05T03:44:33.450Z,24.99
2023-03-05T03:47:01.810Z,25.07
2023-03-05T03:49:30.173Z,25.14
2023-03-05T03:51:59.242Z,25.22
2023-03-05T03:54:27.587Z,25.30
2023-03-05T03:56:55.895Z,25.36
2023-03-05T03:59:24.642Z,25.44
2023-03-05T04:01:53.040Z,25.51
2023-03-05T04:04:21.367Z,25.60
2023-03-05T04:06:49.747Z,25.68
2023-03-05T04:09:18.094Z,25.77
2023-03-05T04:11:46.396Z,25.82
2023-03-05T04:14:14.721Z,25.89
2023-03-05T04:16:43.343Z,25.94
2023-03-05T04:19:11.957Z,26.01
2023-03-05T04:21:41.041Z,26.08
2023-03-05T04:24:10.009Z,26.14
2023-03-05T04:26:38.362Z,26.21
2023-03-05T04:29:06.674Z,26.28
2023-03-05T04:31:35.137Z,26.33
2023-03-05T04:34:03.516Z,26.40
2023-03-05T04:36:31.830Z,26.46
2023-03-05T04:39:00.166Z,26.52
2023-03-05T04:41:28.445Z,26.58
2023-03-05T04:43:56.735Z,26.65
2023-03-05T04:46:25.153Z,26.70
2023-03-05T04:48:53.511Z,26.76
2023-03-05T04:51:21.832Z,26.82
2023-03-05T04:53:50.281Z,26.88
2023-03-05T04:56:18.697Z,26.95
2023-03-05T04:58:47.028Z,26.99
2023-03-05T05:01:15.392Z,27.03
2023-03-05T05:03:43.680Z,27.06
2023-03-05T05:06:12.726Z,27.11
2023-03-05T05:08:41.141Z,27.16
2023-03-05T05:11:13.851Z,27.22
2023-03-05T05:13:42.250Z,27.28
2023-03-05T05:16:11.153Z,27.33
2023-03-05T05:18:39.869Z,27.36
2023-03-05T05:21:12.948Z,27.38
2023-03-05T05:23:41.693Z,27.43
2023-03-05T05:26:10.380Z,27.48
2023-03-05T05:28:39.427Z,27.55
2023-03-05T05:31:16.535Z,27.61
2023-03-05T05:33:46.108Z,27.67
2023-03-05T05:36:17.789Z,27.72
2023-03-05T05:38:46.949Z,27.79
2023-03-05T05:41:17.374Z,27.82
2023-03-05T05:43:45.953Z,27.88
2023-03-05T05:46:18.451Z,27.88
2023-03-05T05:48:47.784Z,27.90
2023-03-05T05:51:19.100Z,27.93
2023-03-05T05:53:48.145Z,27.93
2023-03-05T05:56:17.802Z,27.94
2023-03-05T05:58:48.604Z,27.97
2023-03-05T06:01:27.376Z,28.02
2023-03-05T06:03:56.149Z,28.07
2023-03-05T06:06:26.978Z,28.13
2023-03-05T06:08:56.037Z,28.20
2023-03-05T06:11:24.791Z,28.24
2023-03-05T06:13:53.366Z,28.28
2023-03-05T06:16:25.238Z,28.31
2023-03-05T06:18:54.572Z,28.36
2023-03-05T06:21:24.683Z,28.38
2023-03-05T06:23:53.436Z,28.40
2023-03-05T06:26:23.440Z,28.40
2023-03-05T06:28:52.538Z,28.36
2023-03-05T06:31:23.459Z,28.39
2023-03-05T06:33:52.423Z,28.40
2023-03-05T06:36:22.540Z,28.44
2023-03-05T06:38:53.180Z,28.49
2023-03-05T06:41:30.415Z,28.48
2023-03-05T06:44:00.426Z,28.49
2023-03-05T06:46:31.966Z,28.52
2023-03-05T06:49:03.009Z,28.57
2023-03-05T06:51:34.061Z,28.61
2023-03-05T06:54:05.706Z,28.59
2023-03-05T06:56:36.256Z,28.59
2023-03-05T06:59:05.050Z,28.60
2023-03-05T07:01:33.426Z,28.59
2023-03-05T07:04:03.909Z,28.60
2023-03-05T07:06:37.518Z,28.59
2023-03-05T07:09:08.089Z,28.61
2023-03-05T07:11:36.538Z,28.67
2023-03-05T07:14:05.692Z,28.72
2023-03-05T07:16:35.976Z,28.77
2023-03-05T07:19:06.437Z,28.77
2023-03-05T07:21:38.346Z,28.81
2023-03-05T07:24:09.146Z,28.83
2023-03-05T07:26:37.691Z,28.87
2023-03-05T07:29:06.261Z,28.89
2023-03-05T07:31:34.643Z,28.92
2023-03-05T07:34:04.455Z,28.95
2023-03-05T07:36:32.831Z,28.96
2023-03-05T07:39:01.187Z,28.99
2023-03-05T07:41:29.721Z,29.00
2023-03-05T07:43:58.025Z,29.02
2023-03-05T07:46:46.652Z,29.06
2023-03-05T07:49:21.040Z,29.08
2023-03-05T07:51:49.723Z,29.10
2023-03-05T07:54:23.457Z,29.11
2023-03-05T07:57:06.741Z,29.10
2023-03-05T07:59:42.579Z,29.09
2023-03-05T08:02:17.876Z,29.09
2023-03-05T08:04:56.214Z,29.12
2023-03-05T08:07:25.399Z,29.16
2023-03-05T08:09:55.022Z,29.17
2023-03-05T08:12:31.552Z,29.17
2023-03-05T08:15:03.918Z,29.17
2023-03-05T08:17:32.209Z,29.17
2023-03-05T08:20:01.209Z,29.19
2023-03-05T08:22:29.532Z,29.19
2023-03-05T08:24:57.867Z,29.18
2023-03-05T08:27:26.202Z,29.18
2023-03-05T08:29:54.714Z,29.19
2023-03-05T08:32:23.110Z,29.18
2023-03-05T08:34:51.461Z,29.19
2023-03-05T08:37:19.757Z,29.15
2023-03-05T08:39:48.263Z,29.13
2023-03-05T08:42:16.575Z,29.11
2023-03-05T08:44:44.872Z,29.12
2023-03-05T08:47:13.187Z,29.11
2023-03-05T08:49:41.595Z,29.11
2023-03-05T08:52:10.038Z,29.10
2023-03-05T08:54:39.176Z,29.09
2023-03-05T08:57:07.517Z,29.07
2023-03-05T08:59:35.864Z,29.06
2023-03-05T09:02:04.375Z,29.04
2023-03-05T09:04:32.716Z,29.02
2023-03-05T09:07:01.005Z,29.02
2023-03-05T09:09:30.988Z,29.00
2023-03-05T09:12:03.491Z,28.97
2023-03-05T09:14:31.972Z,28.96
2023-03-05T09:17:00.268Z,28.95
2023-03-05T09:19:28.653Z,28.92
2023-03-05T09:21:57.205Z,28.90
2023-03-05T09:24:25.839Z,28.88
2023-03-05T09:26:54.152Z,28.87
2023-03-05T09:29:22.436Z,28.82
2023-03-05T09:31:52.824Z,28.82
2023-03-05T09:34:21.373Z,28.79
2023-03-05T09:36:50.077Z,28.78
2023-03-05T09:39:18.861Z,28.75
2023-03-05T09:42:10.139Z,28.72
2023-03-05T09:44:47.556Z,28.67
2023-03-05T09:47:18.866Z,28.62
2023-03-05T09:50:11.481Z,28.57
2023-03-05T09:52:56.471Z,28.52
2023-03-05T09:55:41.180Z,28.45
2023-03-05T09:58:17.380Z,28.40
2023-03-05T10:00:50.646Z,28.35
2023-03-05T10:03:23.720Z,28.31
2023-03-05T10:06:00.665Z,28.26
2023-03-05T10:08:53.185Z,28.20
2023-03-05T10:11:47.003Z,28.15
2023-03-05T10:14:23.056Z,28.10
2023-03-05T10:17:00.729Z,28.06
2023-03-05T10:19:47.694Z,28.00
2023-03-05T10:22:26.203Z,27.96
2023-03-05T10:25:21.158Z,27.89
2023-03-05T10:27:54.175Z,27.83
2023-03-05T10:30:52.641Z,27.78
2023-03-05T10:33:35.687Z,27.70
2023-03-05T10:36:12.873Z,27.64
2023-03-05T10:38:50.148Z,27.58
2023-03-05T10:41:46.128Z,27.50
2023-03-05T10:44:34.230Z,27.43
2023-03-05T10:47:04.142Z,27.35
2023-03-05T10:49:39.286Z,27.26
2023-03-05T10:52:18.600Z,27.18
2023-03-05T10:54:47.110Z,27.09
2023-03-05T10:57:28.505Z,27.00
2023-03-05T11:00:02.850Z,26.91
2023-03-05T11:02:31.351Z,26.84
2023-03-05T11:05:00.030Z,26.76
2023-03-05T11:07:28.275Z,26.68
2023-03-05T11:10:05.331Z,26.62
2023-03-05T11:12:39.196Z,26.54
2023-03-05T11:15:27.323Z,26.44
2023-03-05T11:18:09.232Z,26.37
2023-03-05T11:20:38.623Z,26.28
2023-03-05T11:23:16.094Z,26.19
2023-03-05T11:25:58.201Z,26.13
2023-03-05T11:28:39.088Z,26.05
2023-03-05T11:31:25.298Z,25.97
2023-03-05T11:34:05.980Z,25.89
2023-03-05T11:36:40.135Z,25.83
2023-03-05T11:39:11.591Z,25.77
2023-03-05T11:42:06.119Z,25.69
2023-03-05T11:44:54.353Z,25.61
2023-03-05T11:47:46.722Z,25.51
2023-03-05T11:50:17.614Z,25.44
2023-03-05T11:53:10.317Z,25.37
2023-03-05T11:55:41.951Z,25.31
2023-03-05T11:58:19.410Z,25.23
2023-03-05T12:00:49.610Z,25.18
2023-03-05T12:03:23.300Z,25.12
2023-03-05T12:06:03.156Z,25.06
2023-03-05T12:08:36.848Z,24.99
2023-03-05T12:11:24.845Z,24.91
2023-03-05T12:14:36.817Z,24.86
2023-03-05T12:17:09.187Z,24.81
2023-03-05T12:19:42.754Z,24.78
2023-03-05T12:22:25.269Z,24.72
2023-03-05T12:24:53.981Z,24.69
2023-03-05T12:27:38.006Z,24.62
2023-03-05T12:30:06.862Z,24.58
2023-03-05T12:32:36.242Z,24.55
2023-03-05T12:35:07.339Z,24.51
2023-03-05T12:37:35.600Z,24.47
2023-03-05T12:40:26.921Z,24.45
2023-03-05T12:42:57.564Z,24.41
2023-03-05T12:45:38.532Z,24.38
2023-03-05T12:48:11.749Z,24.33
2023-03-05T12:53:22.371Z,24.22
2023-03-05T12:56:02.594Z,24.17
2023-03-05T12:58:48.152Z,24.14
2023-03-05T13:01:22.755Z,24.08
2023-03-05T13:04:02.805Z,24.06
2023-03-05T13:06:36.864Z,24.03
2023-03-05T13:09:19.709Z,23.98
2023-03-05T13:11:51.301Z,23.92
2023-03-05T13:14:40.656Z,23.85
2023-03-05T13:17:30.456Z,23.81
2023-03-05T13:20:00.271Z,23.77
2023-03-05T13:22:29.102Z,23.73
2023-03-05T13:25:21.614Z,23.72
2023-03-05T13:27:50.066Z,23.68
2023-03-05T13:30:27.714Z,23.65
2023-03-05T13:33:03.850Z,23.61
2023-03-05T13:35:36.376Z,23.58
2023-03-05T13:38:04.765Z,23.55
2023-03-05T13:40:33.867Z,23.50
2023-03-05T13:43:14.632Z,23.48
2023-03-05T13:45:45.550Z,23.43
2023-03-05T13:48:21.092Z,23.39
2023-03-05T13:50:57.207Z,23.36
2023-03-05T13:53:29.191Z,23.33
2023-03-05T13:56:10.030Z,23.32
2023-03-05T13:58:54.503Z,23.28
2023-03-05T14:01:30.699Z,23.25
2023-03-05T14:04:07.472Z,23.22
2023-03-05T14:06:44.222Z,23.19
2023-03-05T14:09:26.056Z,23.19
2023-03-05T14:12:06.428Z,23.17
2023-03-05T14:14:40.143Z,23.15
2023-03-05T14:17:42.782Z,23.14
2023-03-05T14:20:25.895Z,23.16
2023-03-05T14:22:59.866Z,23.17
2023-03-05T14:25:40.525Z,23.19
2023-03-05T14:28:17.816Z,23.21
2023-03-05T14:30:55.035Z,23.23
2023-03-05T14:33:33.059Z,23.23
2023-03-05T14:36:03.341Z,23.21
2023-03-05T14:38:35.016Z,23.19
2023-03-05T14:41:21.737Z,23.19
2023-03-05T14:43:50.188Z,23.20
2023-03-05T14:46:18.677Z,23.21
2023-03-05T14:48:47.896Z,23.22
2023-03-05T14:51:16.331Z,23.21
2023-03-05T14:53:47.644Z,23.21
2023-03-05T14:56:29.114Z,23.23
2023-03-05T14:59:00.494Z,23.25
2023-03-05T15:01:28.872Z,23.26
2023-03-05T15:03:57.229Z,23.26
2023-03-05T15:06:34.211Z,23.28
2023-03-05T15:09:03.434Z,23.29
2023-03-05T15:11:32.076Z,23.29
2023-03-05T15:14:00.490Z,23.30
2023-03-05T15:16:28.817Z,23.33
2023-03-05T15:18:57.160Z,23.35
2023-03-05T15:21:25.519Z,23.38
2023-03-05T15:23:53.821Z,23.40
2023-03-05T15:26:22.727Z,23.43
2023-03-05T15:28:51.179Z,23.44
2023-03-05T15:31:19.587Z,23.46
2023-03-05T15:33:47.947Z,23.47
2023-03-05T15:36:16.213Z,23.47
2023-03-05T15:38:44.687Z,23.48
2023-03-05T15:41:12.990Z,23.47
2023-03-05T15:43:41.597Z,23.46
2023-03-05T15:46:10.024Z,23.44
2023-03-05T15:48:38.420Z,23.43
2023-03-05T15:51:09.964Z,23.38
2023-03-05T15:53:38.312Z,23.38
2023-03-05T15:56:07.022Z,23.36
2023-03-05T15:58:35.398Z,23.31
2023-03-05T16:01:03.723Z,23.27
2023-03-05T16:03:32.149Z,23.24
2023-03-05T16:06:00.519Z,23.20
2023-03-05T16:08:29.463Z,23.14
2023-03-05T16:10:57.775Z,23.10
2023-03-05T16:13:29.508Z,23.06
2023-03-05T16:15:58.942Z,23.01
2023-03-05T16:18:27.615Z,22.95
2023-03-05T16:20:56.576Z,22.91
2023-03-05T16:23:24.968Z,22.86
2023-03-05T16:25:53.586Z,22.84
2023-03-05T16:28:21.896Z,22.81
2023-03-05T16:30:59.630Z,22.80
2023-03-05T16:33:28.075Z,22.79
2023-03-05T16:36:20.619Z,22.77
2023-03-05T16:38:53.784Z,22.77
2023-03-05T16:41:24.535Z,22.76
2023-03-05T16:43:54.944Z,22.75
2023-03-05T16:46:25.273Z,22.72
2023-03-05T16:48:54.033Z,22.69
2023-03-05T16:51:22.968Z,22.67
2023-03-05T16:53:51.611Z,22.64
2023-03-05T16:56:19.993Z,22.61
2023-03-05T16:58:49.229Z,22.60
2023-03-05T17:01:22.359Z,22.58
2023-03-05T17:03:51.574Z,22.58
2023-03-05T17:06:22.640Z,22.56
2023-03-05T17:08:52.336Z,22.54
2023-03-05T17:11:21.421Z,22.52
2023-03-05T17:13:50.240Z,22.50
2023-03-05T17:16:20.149Z,22.48
2023-03-05T17:18:49.626Z,22.45
2023-03-05T17:21:18.173Z,22.42
2023-03-05T17:23:46.514Z,22.38
2023-03-05T17:26:19.921Z,22.34
2023-03-05T17:28:48.274Z,22.30
2023-03-05T17:31:17.033Z,22.27
2023-03-05T17:33:45.498Z,22.22
2023-03-05T17:36:20.843Z,22.18
2023-03-05T17:38:50.231Z,22.14
2023-03-05T17:41:20.005Z,22.10
2023-03-05T17:43:48.918Z,22.08
2023-03-05T17:46:17.914Z,22.06
2023-03-05T17:48:46.258Z,22.04
2023-03-05T17:51:17.597Z,22.00
2023-03-05T17:53:46.702Z,21.96
2023-03-05T17:56:23.376Z,21.97
2023-03-05T17:58:52.189Z,21.96
2023-03-05T18:01:25.747Z,21.95
2023-03-05T18:03:54.234Z,21.94
2023-03-05T18:06:22.666Z,21.92
2023-03-05T18:08:51.412Z,21.92
2023-03-05T18:11:20.149Z,21.92
2023-03-05T18:13:48.546Z,21.92
2023-03-05T18:16:17.993Z,21.89
2023-03-05T18:18:46.667Z,21.89
2023-03-05T18:21:23.314Z,21.86
2023-03-05T18:23:52.344Z,21.86
2023-03-05T18:26:20.676Z,21.85
2023-03-05T18:28:49.061Z,21.84
2023-03-05T18:31:17.389Z,21.82
2023-03-05T18:33:46.303Z,21.80
2023-03-05T18:36:15.945Z,21.78
2023-03-05T18:38:44.952Z,21.73
2023-03-05T18:41:21.708Z,21.68
2023-03-05T18:43:51.403Z,21.62
2023-03-05T18:46:19.876Z,21.59
2023-03-05T18:48:49.093Z,21.55
2023-03-05T18:51:20.035Z,21.51
2023-03-05T18:53:48.655Z,21.48
2023-03-05T18:56:16.961Z,21.43
2023-03-05T18:58:45.883Z,21.41
2023-03-05T19:01:14.695Z,21.36
2023-03-05T19:03:42.997Z,21.32
2023-03-05T19:06:11.416Z,21.28
2023-03-05T19:08:39.791Z,21.26
2023-03-05T19:11:17.440Z,21.23
2023-03-05T19:13:51.279Z,21.21
2023-03-05T19:16:30.060Z,21.17
2023-03-05T19:19:24.313Z,21.12
2023-03-05T19:21:56.006Z,21.12
2023-03-05T19:24:25.923Z,21.12
2023-03-05T19:26:56.752Z,21.10
2023-03-05T19:29:26.927Z,21.10
2023-03-05T19:31:55.762Z,21.07
2023-03-05T19:34:24.123Z,21.07
2023-03-05T19:36:52.490Z,21.05
2023-03-05T19:39:20.889Z,21.04
2023-03-05T19:41:49.193Z,21.02
2023-03-05T19:44:17.565Z,21.02
2023-03-05T19:46:46.159Z,20.99
2023-03-05T19:49:14.495Z,20.96
2023-03-05T19:51:44.755Z,20.94
2023-03-05T19:54:14.485Z,20.92
2023-03-05T19:56:44.549Z,20.92
2023-03-05T19:59:12.950Z,20.89
2023-03-05T20:01:41.307Z,20.87
2023-03-05T20:04:09.642Z,20.84
2023-03-05T20:06:37.964Z,20.82
2023-03-05T20:09:08.013Z,20.79
2023-03-05T20:11:37.142Z,20.79
2023-03-05T20:14:05.784Z,20.76
2023-03-05T20:16:36.280Z,20.74
2023-03-05T20:19:06.191Z,20.72
2023-03-05T20:21:40.097Z,20.67
2023-03-05T20:24:17.479Z,20.65
2023-03-05T20:26:47.790Z,20.63
2023-03-05T20:29:18.061Z,20.58
2023-03-05T20:31:47.409Z,20.56
2023-03-05T20:34:18.977Z,20.56
2023-03-05T20:36:47.731Z,20.53
2023-03-05T20:39:16.699Z,20.52
2023-03-05T20:41:45.226Z,20.49
2023-03-05T20:44:14.631Z,20.44
2023-03-05T20:47:13.669Z,20.41
2023-03-05T20:49:41.971Z,20.36
2023-03-05T20:52:10.295Z,20.34
2023-03-05T20:54:38.691Z,20.30
2023-03-05T20:57:06.983Z,20.29
2023-03-05T20:59:35.287Z,20.26
2023-03-05T21:02:03.563Z,20.24
2023-03-05T21:04:31.875Z,20.23
2023-03-05T21:07:00.393Z,20.22
2023-03-05T21:09:29.808Z,20.19
2023-03-05T21:11:58.100Z,20.19
2023-03-05T21:14:26.452Z,20.17
2023-03-05T21:16:54.758Z,20.15
2023-03-05T21:19:23.139Z,20.15
2023-03-05T21:21:51.857Z,20.13
2023-03-05T21:24:55.190Z,20.11
2023-03-05T21:27:23.546Z,20.11
2023-03-05T21:29:51.875Z,20.09
2023-03-05T21:32:20.799Z,20.06
2023-03-05T21:34:49.126Z,20.04
2023-03-05T21:37:17.398Z,20.01
2023-03-05T21:39:45.861Z,19.98
2023-03-05T21:42:14.516Z,19.95
2023-03-05T21:44:42.868Z,19.94
2023-03-05T21:47:11.580Z,19.91
2023-03-05T21:49:39.890Z,19.92
2023-03-05T21:52:13.098Z,19.94
2023-03-05T21:54:42.054Z,19.93
2023-03-05T21:57:12.581Z,19.95
2023-03-05T21:59:42.538Z,19.97
2023-03-05T22:02:20.214Z,19.97
2023-03-05T22:04:49.526Z,19.94
2023-03-05T22:07:19.280Z,19.95
2023-03-05T22:09:48.130Z,19.93
2023-03-05T22:12:47.350Z,19.92
2023-03-05T22:15:15.643Z,19.89
2023-03-05T22:17:43.949Z,19.86
2023-03-05T22:20:13.120Z,19.82
2023-03-05T22:22:42.612Z,19.76
2023-03-05T22:25:15.011Z,19.71
2023-03-05T22:27:45.127Z,19.69
2023-03-05T22:30:14.432Z,19.66
2023-03-05T22:32:42.773Z,19.65
2023-03-05T22:35:14.358Z,19.63
2023-03-05T22:37:43.474Z,19.62
2023-03-05T22:40:16.952Z,19.60
2023-03-05T22:42:46.072Z,19.57
2023-03-05T22:45:17.821Z,19.56
2023-03-05T22:47:50.768Z,19.53
2023-03-05T22:50:19.506Z,19.51
2023-03-05T22:52:47.944Z,19.48
2023-03-05T22:55:17.651Z,19.47
2023-03-05T22:57:46.574Z,19.45
2023-03-05T23:00:18.852Z,19.44
2023-03-05T23:02:48.008Z,19.43
2023-03-05T23:05:16.408Z,19.42
2023-03-05T23:07:45.804Z,19.41
2023-03-05T23:10:27.356Z,19.39
2023-03-05T23:12:57.827Z,19.39
2023-03-05T23:15:33.742Z,19.38
2023-03-05T23:18:02.871Z,19.37
2023-03-05T23:20:33.690Z,19.39
2023-03-05T23:23:03.630Z,19.38
2023-03-05T23:25:34.558Z,19.38
2023-03-05T23:28:04.026Z,19.34
2023-03-05T23:30:35.428Z,19.35
2023-03-05T23:33:05.675Z,19.32
2023-03-05T23:35:40.279Z,19.31
2023-03-05T23:38:12.821Z,19.29
2023-03-05T23:40:47.389Z,19.28
2023-03-05T23:43:18.053Z,19.25
2023-03-05T23:45:49.023Z,19.26
2023-03-05T23:48:19.208Z,19.25
2023-03-05T23:50:48.983Z,19.26
2023-03-05T23:53:32.181Z,19.29
2023-03-05T23:56:00.553Z,19.31
2023-03-05T23:58:28.998Z,19.34
